Terminal Aerodrome Forecast
Issued by NWS Tiyan, Guam

Home | Current Version | Previous Version | Text Only | Print | Product List | Glossary On
Versions: 1 2 3 4 5 6 7 8 9 10 11 12 13
000
FTPQ31 PGUM 230820 AAA
TAFGUM
TAF AMD
PGUM 230820Z 2308/2412 12011G18KT P6SM VCSH FEW018 SCT040 BKN100
      TEMPO 2308/2311 5SM SHRA SCT014 BKN025
     FM231100 13010KT P6SM VCSH FEW018 SCT040 BKN100=

USA.gov is the U.S. government's official web portal to all federal, state and local government web resources and services.